nws-alerts: Checking more than four warning/county codes can delay the loading of your pages. You should use a cron job to get the data.
EllijayWeather Historical Data
 
Daily Summary for October 24, 2020 Units:  English    Metric   Both
Daily Weekly Monthly Yearly
  Current: High: Low: Average:
Temperature: 62.4 °F 62.4 °F 59.4 °F 60.5 °F
Dew Point: 61.3 °F 61.3 °F 57.6 °F 58.7 °F
Humidity: 96% 96% 93% 94%
Wind Speed: 0mph 0mph 0mph 0mph
Wind Gust: 0mph 0mph - -
WindCalm - -
Pressure: 30.1 in 30.1 in 30.0 in -
Precipitation: 0.050 in      
 
 
Tabular Data for October 24, 2020
Time Temperature Dew Point Pressure Wind Wind Speed Wind Gust Humidity Rainfall Rate (Hourly)
00:04 61.7 °F 59.7 °F 30.1 in Calm     93% 0.000 in
00:09 61.5 °F 59.5 °F 30.1 in Calm     93% 0.000 in
00:14 61.5 °F 59.5 °F 30.1 in Calm     93% 0.000 in
00:19 61.3 °F 59.4 °F 30.1 in Calm     93% 0.000 in
00:24 61.3 °F 59.4 °F 30.1 in Calm     93% 0.000 in
00:29 61.3 °F 59.4 °F 30.1 in Calm     93% 0.000 in
00:34 61.2 °F 59.2 °F 30.1 in Calm     93% 0.000 in
00:39 61.2 °F 59.2 °F 30.1 in Calm     93% 0.000 in
00:44 61.0 °F 59.0 °F 30.1 in Calm     93% 0.000 in
00:49 61.0 °F 59.0 °F 30.1 in Calm     93% 0.000 in
00:54 61.0 °F 59.0 °F 30.1 in Calm     93% 0.000 in
00:59 61.0 °F 59.0 °F 30.1 in Calm     93% 0.000 in
01:04 61.0 °F 59.0 °F 30.1 in Calm     93% 0.000 in
01:09 60.8 °F 58.8 °F 30.1 in Calm     93% 0.000 in
01:14 60.6 °F 58.6 °F 30.1 in Calm     93% 0.000 in
01:19 60.6 °F 58.6 °F 30.1 in Calm     93% 0.000 in
01:24 60.4 °F 58.5 °F 30.1 in Calm     93% 0.000 in
01:29 60.4 °F 58.5 °F 30.1 in Calm     93% 0.000 in
01:34 60.3 °F 58.3 °F 30.1 in Calm     93% 0.000 in
01:39 60.4 °F 58.6 °F 30.1 in Calm     94% 0.000 in
01:44 60.4 °F 58.6 °F 30.1 in Calm     94% 0.000 in
01:49 60.4 °F 58.5 °F 30.1 in Calm     93% 0.000 in
01:54 60.4 °F 58.5 °F 30.1 in Calm     93% 0.000 in
01:59 60.3 °F 58.3 °F 30.1 in Calm     93% 0.000 in
02:04 60.3 °F 58.3 °F 30.1 in Calm     93% 0.000 in
02:09 60.1 °F 58.1 °F 30.1 in Calm     93% 0.000 in
02:14 59.7 °F 57.7 °F 30.1 in Calm     93% 0.000 in
02:19 59.7 °F 57.7 °F 30.1 in Calm     93% 0.000 in
02:24 59.7 °F 57.7 °F 30.1 in Calm     93% 0.000 in
02:29 59.7 °F 57.7 °F 30.1 in Calm     93% 0.000 in
02:34 59.5 °F 57.6 °F 30.1 in Calm     93% 0.000 in
02:39 59.7 °F 57.7 °F 30.1 in Calm     93% 0.000 in
02:44 59.5 °F 57.6 °F 30.1 in Calm     93% 0.000 in
02:49 59.5 °F 57.7 °F 30.1 in Calm     94% 0.000 in
02:54 59.5 °F 57.7 °F 30.1 in Calm     94% 0.000 in
02:59 59.7 °F 57.9 °F 30.1 in Calm     94% 0.000 in
03:04 59.7 °F 57.9 °F 30.1 in Calm     94% 0.000 in
03:09 59.7 °F 57.9 °F 30.1 in Calm     94% 0.000 in
03:14 59.7 °F 57.9 °F 30.1 in Calm     94% 0.000 in
03:19 59.7 °F 57.9 °F 30.1 in Calm     94% 0.000 in
03:24 59.7 °F 57.7 °F 30.1 in Calm     93% 0.000 in
03:29 59.5 °F 57.6 °F 30.1 in Calm     93% 0.000 in
03:34 59.5 °F 57.7 °F 30.1 in Calm     94% 0.000 in
03:39 59.5 °F 57.7 °F 30.1 in Calm     94% 0.000 in
03:44 59.5 °F 57.7 °F 30.1 in Calm     94% 0.000 in
03:49 59.4 °F 57.6 °F 30.1 in Calm     94% 0.000 in
03:54 59.4 °F 57.6 °F 30.1 in Calm     94% 0.000 in
03:59 59.4 °F 57.6 °F 30.1 in Calm     94% 0.000 in
04:04 59.4 °F 57.6 °F 30.1 in Calm     94% 0.000 in
04:09 59.4 °F 57.6 °F 30.0 in Calm     94% 0.000 in
04:14 59.4 °F 57.6 °F 30.0 in Calm     94% 0.000 in
04:19 59.4 °F 57.6 °F 30.1 in Calm     94% 0.000 in
04:24 59.5 °F 57.7 °F 30.1 in Calm     94% 0.000 in
04:29 59.5 °F 57.7 °F 30.1 in Calm     94% 0.000 in
04:34 59.5 °F 57.7 °F 30.1 in Calm     94% 0.000 in
04:39 59.5 °F 57.7 °F 30.1 in Calm     94% 0.000 in
04:44 59.5 °F 57.7 °F 30.1 in Calm     94% 0.000 in
04:49 59.5 °F 57.7 °F 30.0 in Calm     94% 0.000 in
04:54 59.5 °F 57.7 °F 30.0 in Calm     94% 0.000 in
04:59 59.5 °F 57.7 °F 30.0 in Calm     94% 0.000 in
05:04 59.5 °F 57.7 °F 30.0 in Calm     94% 0.000 in
05:09 59.7 °F 57.9 °F 30.0 in Calm     94% 0.000 in
05:14 59.9 °F 58.1 °F 30.0 in Calm     94% 0.000 in
05:19 60.1 °F 58.3 °F 30.0 in Calm     94% 0.000 in
05:24 60.1 °F 58.3 °F 30.0 in Calm     94% 0.000 in
05:29 60.1 °F 58.3 °F 30.0 in Calm     94% 0.000 in
05:34 60.3 °F 58.5 °F 30.0 in Calm     94% 0.000 in
05:39 60.3 °F 58.5 °F 30.0 in Calm     94% 0.000 in
05:44 60.3 °F 58.5 °F 30.0 in Calm     94% 0.000 in
05:49 60.3 °F 58.5 °F 30.0 in Calm     94% 0.000 in
05:54 60.4 °F 58.6 °F 30.0 in Calm     94% 0.000 in
05:59 60.4 °F 58.6 °F 30.0 in Calm     94% 0.000 in
06:04 60.4 °F 58.6 °F 30.0 in Calm     94% 0.000 in
06:09 60.4 °F 58.6 °F 30.0 in Calm     94% 0.000 in
06:14 60.4 °F 58.6 °F 30.0 in Calm     94% 0.000 in
06:19 60.4 °F 58.5 °F 30.0 in Calm     93% 0.000 in
06:24 60.4 °F 58.6 °F 30.1 in Calm     94% 0.000 in
06:29 60.6 °F 58.8 °F 30.1 in Calm     94% 0.000 in
06:34 61.2 °F 59.7 °F 30.1 in Calm     95% 0.000 in
06:39 61.3 °F 59.9 °F 30.1 in Calm     95% 0.000 in
06:44 61.3 °F 59.9 °F 30.1 in Calm     95% 0.010 in
06:49 61.7 °F 60.3 °F 30.1 in Calm     95% 0.030 in
06:54 61.9 °F 60.4 °F 30.1 in Calm     95% 0.040 in
06:59 61.9 °F 60.4 °F 30.1 in Calm     95% 0.040 in
07:04 62.1 °F 60.6 °F 30.1 in Calm     95% 0.040 in
07:09 62.2 °F 60.8 °F 30.1 in Calm     95% 0.050 in
07:14 62.2 °F 60.8 °F 30.1 in Calm     95% 0.050 in
07:19 62.2 °F 60.8 °F 30.1 in Calm     95% 0.050 in
07:24 62.2 °F 60.8 °F 30.1 in Calm     95% 0.050 in
07:29 62.2 °F 60.8 °F 30.1 in Calm     95% 0.050 in
07:34 62.1 °F 60.6 °F 30.1 in Calm     95% 0.050 in
07:39 62.1 °F 60.6 °F 30.1 in Calm     95% 0.050 in
07:44 62.2 °F 60.8 °F 30.1 in Calm     95% 0.050 in
07:49 62.2 °F 60.8 °F 30.1 in Calm     95% 0.040 in
07:54 62.2 °F 60.8 °F 30.1 in Calm     95% 0.020 in
07:59 62.4 °F 61.3 °F 30.1 in Calm     96% 0.010 in
08:04 62.4 °F 61.3 °F 30.1 in Calm     96% 0.010 in
East Ellijay Weather
Compliments of Weather Underground - 2 mb